Time;durP1;ratioP1;P1;durP2;ratioP2;P2;SDS_P1;SDS_P2;PMS_P1;PMS_P2;Temp;Humidity;BMP_temperature;BMP_pressure;BME280_temperature;BME280_humidity;BME280_pressure;Samples;Min_cycle;Max_cycle;Signal;HPM_P1;HPM_P2
2021/05/10 00:01:48;;;;;;;2.40;2.17;;;;;;;;;;5053775;28;20514;-52
2021/05/10 00:04:14;;;;;;;5.03;2.53;;;;;;;;;;5054044;28;20404;-53
2021/05/10 00:06:40;;;;;;;2.60;1.90;;;;;;;;;;5053624;28;20449;-52
2021/05/10 00:09:06;;;;;;;2.40;2.20;;;;;;;;;;5053394;28;20405;-52
2021/05/10 00:11:35;;;;;;;7.30;2.50;;;;;;;;;;5053216;28;20780;-53
2021/05/10 00:14:02;;;;;;;3.73;2.30;;;;;;;;;;5053613;28;20978;-54
2021/05/10 00:16:28;;;;;;;4.87;2.10;;;;;;;;;;5053326;28;20497;-53
2021/05/10 00:18:54;;;;;;;2.30;1.90;;;;;;;;;;5053222;28;20406;-53
2021/05/10 00:21:20;;;;;;;3.33;1.93;;;;;;;;;;5053390;28;20456;-53
2021/05/10 00:23:46;;;;;;;4.03;2.03;;;;;;;;;;5053445;28;20393;-53
2021/05/10 00:26:12;;;;;;;3.80;2.13;;;;;;;;;;5053814;28;20776;-54
2021/05/10 00:28:38;;;;;;;3.57;1.97;;;;;;;;;;5053412;28;20398;-53
2021/05/10 00:31:04;;;;;;;3.00;2.13;;;;;;;;;;5053524;28;20404;-54
2021/05/10 00:33:30;;;;;;;4.10;2.10;;;;;;;;;;5053521;28;20400;-53
2021/05/10 00:35:56;;;;;;;3.03;2.47;;;;;;;;;;5052872;28;20397;-53
2021/05/10 00:38:22;;;;;;;2.13;1.97;;;;;;;;;;5053052;28;20539;-53
2021/05/10 00:40:48;;;;;;;4.50;1.93;;;;;;;;;;5053119;28;20453;-52
2021/05/10 00:43:14;;;;;;;5.67;2.00;;;;;;;;;;5053102;28;20393;-53
2021/05/10 00:45:40;;;;;;;4.10;2.00;;;;;;;;;;5052854;28;20884;-53
2021/05/10 00:48:06;;;;;;;3.37;2.37;;;;;;;;;;5052627;28;20464;-53
2021/05/10 00:50:32;;;;;;;3.83;2.43;;;;;;;;;;5052779;28;20433;-53
2021/05/10 00:52:58;;;;;;;1.87;1.77;;;;;;;;;;5052524;28;20436;-53
2021/05/10 00:55:24;;;;;;;2.77;2.03;;;;;;;;;;5052798;28;20977;-53
2021/05/10 00:57:55;;;;;;;2.47;1.80;;;;;;;;;;5052316;28;20437;-54
2021/05/10 01:00:22;;;;;;;2.87;2.63;;;;;;;;;;5052500;28;21158;-52
2021/05/10 01:02:48;;;;;;;1.80;1.70;;;;;;;;;;5051664;28;20405;-52
2021/05/10 01:05:15;;;;;;;3.13;1.63;;;;;;;;;;5052539;28;20428;-53
2021/05/10 01:07:41;;;;;;;2.93;1.90;;;;;;;;;;5051672;28;20418;-53
2021/05/10 01:10:12;;;;;;;2.60;2.00;;;;;;;;;;5051793;28;20948;-52
2021/05/10 01:12:38;;;;;;;4.00;2.03;;;;;;;;;;5051739;28;20745;-53
2021/05/10 01:15:08;;;;;;;1.97;1.80;;;;;;;;;;5052371;28;20406;-53
2021/05/10 01:17:34;;;;;;;2.07;1.97;;;;;;;;;;5052014;28;20418;-53
2021/05/10 01:20:01;;;;;;;2.27;2.10;;;;;;;;;;5051801;28;20401;-53
2021/05/10 01:22:53;;;;;;;5.17;2.10;;;;;;;;;;5051915;28;20884;-53
2021/05/10 01:25:20;;;;;;;1.80;1.70;;;;;;;;;;5050222;28;20464;-53
2021/05/10 01:27:47;;;;;;;2.70;2.03;;;;;;;;;;5051956;28;20508;-54
2021/05/10 01:30:20;;;;;;;3.50;1.80;;;;;;;;;;5051761;28;20787;-54
2021/05/10 01:32:47;;;;;;;1.77;1.67;;;;;;;;;;5051838;28;20812;-52
2021/05/10 01:35:13;;;;;;;1.93;1.80;;;;;;;;;;5051862;28;20416;-53
2021/05/10 01:37:39;;;;;;;2.00;1.90;;;;;;;;;;5051490;28;20504;-53
2021/05/10 01:40:06;;;;;;;3.43;2.23;;;;;;;;;;5051737;28;20492;-53
2021/05/10 01:42:32;;;;;;;2.47;2.20;;;;;;;;;;5051599;28;20452;-52
2021/05/10 01:44:58;;;;;;;2.60;1.97;;;;;;;;;;5051650;28;20401;-53
2021/05/10 01:47:24;;;;;;;2.27;2.07;;;;;;;;;;5051092;28;20464;-53
2021/05/10 01:49:50;;;;;;;1.70;1.60;;;;;;;;;;5051364;28;20405;-52
2021/05/10 01:52:16;;;;;;;1.80;1.70;;;;;;;;;;5051184;28;20405;-53
2021/05/10 01:54:49;;;;;;;3.17;1.80;;;;;;;;;;5051430;28;20489;-53
2021/05/10 01:57:17;;;;;;;2.20;1.70;;;;;;;;;;5050996;28;20494;-54
2021/05/10 01:59:43;;;;;;;2.10;1.80;;;;;;;;;;5051133;28;20884;-52
2021/05/10 02:02:09;;;;;;;2.93;1.70;;;;;;;;;;5051183;28;20456;-52
2021/05/10 02:04:53;;;;;;;2.03;1.80;;;;;;;;;;5051516;28;20404;-52
2021/05/10 02:07:19;;;;;;;2.00;1.90;;;;;;;;;;5051124;28;20425;-53
2021/05/10 02:09:47;;;;;;;1.70;1.60;;;;;;;;;;5051520;28;20397;-52
2021/05/10 02:12:12;;;;;;;1.67;1.57;;;;;;;;;;5051610;28;20405;-53
2021/05/10 02:14:38;;;;;;;2.03;1.93;;;;;;;;;;5051968;28;20413;-53
2021/05/10 02:17:04;;;;;;;2.13;1.60;;;;;;;;;;5052115;28;20425;-53
2021/05/10 02:19:30;;;;;;;3.23;1.60;;;;;;;;;;5051524;28;20879;-53
2021/05/10 02:21:56;;;;;;;2.10;2.00;;;;;;;;;;5052221;28;20448;-53
2021/05/10 02:24:24;;;;;;;2.33;1.70;;;;;;;;;;5056063;28;20397;-53
2021/05/10 02:26:50;;;;;;;1.83;1.67;;;;;;;;;;5055892;28;20463;-52
2021/05/10 02:29:15;;;;;;;1.93;1.83;;;;;;;;;;5055229;28;20897;-53
2021/05/10 02:31:41;;;;;;;5.30;1.83;;;;;;;;;;5055150;28;20400;-53
2021/05/10 02:34:09;;;;;;;1.73;1.60;;;;;;;;;;5054938;28;20443;-53
2021/05/10 02:36:35;;;;;;;2.20;2.00;;;;;;;;;;5055340;28;20981;-53
2021/05/10 02:39:01;;;;;;;4.63;1.67;;;;;;;;;;5056214;28;20488;-52
2021/05/10 02:41:27;;;;;;;5.80;1.97;;;;;;;;;;5055658;28;20457;-53
2021/05/10 02:43:52;;;;;;;6.40;1.80;;;;;;;;;;5055845;28;20401;-53
2021/05/10 02:46:18;;;;;;;2.30;1.87;;;;;;;;;;5055534;28;20441;-53
2021/05/10 02:48:44;;;;;;;5.10;1.93;;;;;;;;;;5054910;28;20487;-53
2021/05/10 02:51:11;;;;;;;2.53;2.00;;;;;;;;;;5055240;28;20401;-53
2021/05/10 02:53:37;;;;;;;3.83;2.00;;;;;;;;;;5055329;28;20405;-53
2021/05/10 02:56:03;;;;;;;3.10;1.70;;;;;;;;;;5055721;28;20498;-53
2021/05/10 02:58:29;;;;;;;2.73;2.03;;;;;;;;;;5055736;28;20448;-53
2021/05/10 03:00:55;;;;;;;1.73;1.63;;;;;;;;;;5056339;28;20480;-53
2021/05/10 03:03:21;;;;;;;4.70;2.10;;;;;;;;;;5055882;28;20843;-53
2021/05/10 03:05:47;;;;;;;3.27;2.07;;;;;;;;;;5055528;28;20768;-53
2021/05/10 03:08:14;;;;;;;6.03;1.83;;;;;;;;;;5055781;28;20397;-53
2021/05/10 03:10:40;;;;;;;5.13;2.27;;;;;;;;;;5055979;28;20401;-53
2021/05/10 03:13:06;;;;;;;2.50;2.30;;;;;;;;;;5055097;28;20884;-53
2021/05/10 03:15:32;;;;;;;1.90;1.80;;;;;;;;;;5055477;28;20413;-53
2021/05/10 03:17:57;;;;;;;1.90;1.80;;;;;;;;;;5055040;28;20507;-53
2021/05/10 03:20:25;;;;;;;3.03;1.90;;;;;;;;;;5055129;28;20456;-53
2021/05/10 03:22:56;;;;;;;2.20;2.03;;;;;;;;;;5054700;28;20493;-53
2021/05/10 03:25:22;;;;;;;4.03;2.10;;;;;;;;;;5054783;28;20467;-53
2021/05/10 03:27:49;;;;;;;2.17;1.67;;;;;;;;;;5054640;28;20512;-53
2021/05/10 03:30:16;;;;;;;2.33;2.13;;;;;;;;;;5054876;28;20441;-52
2021/05/10 03:32:43;;;;;;;2.70;2.10;;;;;;;;;;5054755;28;20890;-54
2021/05/10 03:35:10;;;;;;;1.70;1.60;;;;;;;;;;5054768;28;20877;-52
2021/05/10 03:37:36;;;;;;;4.70;2.10;;;;;;;;;;5054710;28;20432;-52
2021/05/10 03:40:02;;;;;;;3.27;2.07;;;;;;;;;;5054300;28;20409;-52
2021/05/10 03:42:28;;;;;;;2.00;1.90;;;;;;;;;;5054527;28;20459;-52
2021/05/10 03:44:54;;;;;;;2.80;2.10;;;;;;;;;;5054847;28;20402;-52
2021/05/10 03:47:20;;;;;;;7.27;2.13;;;;;;;;;;5054953;28;20536;-52
2021/05/10 03:49:47;;;;;;;2.03;1.80;;;;;;;;;;5053158;28;20397;-53
2021/05/10 03:52:13;;;;;;;2.83;2.13;;;;;;;;;;5053005;28;20771;-52
2021/05/10 03:54:39;;;;;;;2.60;1.63;;;;;;;;;;5051844;28;20418;-53
2021/05/10 03:57:05;;;;;;;3.33;2.47;;;;;;;;;;5053075;28;20432;-51
2021/05/10 03:59:31;;;;;;;2.33;2.20;;;;;;;;;;5052896;28;20406;-52
2021/05/10 04:02:01;;;;;;;2.60;1.87;;;;;;;;;;5052860;28;20455;-52
2021/05/10 04:04:44;;;;;;;2.50;2.03;;;;;;;;;;5053035;28;20919;-52
2021/05/10 04:10:09;;;;;;;2.17;1.93;;;;;;;;;;5053184;28;20388;-54
2021/05/10 04:15:20;;;;;;;2.50;2.00;;;;;;;;;;5052775;28;20481;-52
2021/05/10 04:17:47;;;;;;;2.20;1.80;;;;;;;;;;5052768;28;20428;-53
2021/05/10 04:20:14;;;;;;;2.40;2.20;;;;;;;;;;5052353;28;20393;-53
2021/05/10 04:22:39;;;;;;;2.30;2.20;;;;;;;;;;5052391;28;20405;-52
2021/05/10 04:25:06;;;;;;;2.10;1.90;;;;;;;;;;5052393;28;20881;-53
2021/05/10 04:27:32;;;;;;;3.93;2.20;;;;;;;;;;5052491;28;20490;-51
2021/05/10 04:29:58;;;;;;;1.83;1.73;;;;;;;;;;5052367;28;20447;-52
2021/05/10 04:32:24;;;;;;;6.20;2.50;;;;;;;;;;5052237;28;20436;-52
2021/05/10 04:34:50;;;;;;;4.50;2.10;;;;;;;;;;5052279;28;20544;-52
2021/05/10 04:37:16;;;;;;;2.23;1.90;;;;;;;;;;5052252;28;20429;-51
2021/05/10 04:39:42;;;;;;;2.83;1.90;;;;;;;;;;5052094;28;20527;-52
2021/05/10 04:42:08;;;;;;;4.03;2.10;;;;;;;;;;5051959;28;20460;-53
2021/05/10 04:44:34;;;;;;;1.90;1.73;;;;;;;;;;5051552;28;20408;-52
2021/05/10 04:47:01;;;;;;;2.37;2.17;;;;;;;;;;5051800;28;20445;-51
2021/05/10 04:49:27;;;;;;;2.23;2.03;;;;;;;;;;5051849;28;20393;-51
2021/05/10 04:51:56;;;;;;;4.00;2.50;;;;;;;;;;5051875;28;20413;-51
2021/05/10 04:54:22;;;;;;;4.47;2.73;;;;;;;;;;5051855;28;20398;-52
2021/05/10 04:56:48;;;;;;;3.97;2.07;;;;;;;;;;5051853;28;20425;-54
2021/05/10 04:59:14;;;;;;;2.80;2.00;;;;;;;;;;5051796;28;20434;-54
2021/05/10 05:01:40;;;;;;;2.77;1.80;;;;;;;;;;5051627;28;20841;-51
2021/05/10 05:04:06;;;;;;;4.50;2.03;;;;;;;;;;5051689;28;20394;-51
2021/05/10 05:06:32;;;;;;;2.53;2.07;;;;;;;;;;5051651;28;20410;-51
2021/05/10 05:08:57;;;;;;;2.63;1.70;;;;;;;;;;5051536;28;20804;-51
2021/05/10 05:11:24;;;;;;;3.30;2.00;;;;;;;;;;5051450;28;20484;-52
2021/05/10 05:13:49;;;;;;;2.90;1.87;;;;;;;;;;5051580;28;20401;-52
2021/05/10 05:16:15;;;;;;;4.30;1.90;;;;;;;;;;5051442;28;20420;-53
2021/05/10 05:18:41;;;;;;;7.07;2.00;;;;;;;;;;5051475;28;20490;-53
2021/05/10 05:21:09;;;;;;;3.23;2.23;;;;;;;;;;5051317;28;20453;-51
2021/05/10 05:23:36;;;;;;;2.60;1.90;;;;;;;;;;5051452;28;20405;-51
2021/05/10 05:26:04;;;;;;;3.53;2.10;;;;;;;;;;5051206;28;20401;-52
2021/05/10 05:28:32;;;;;;;2.70;1.83;;;;;;;;;;5051341;28;20475;-52
2021/05/10 05:30:58;;;;;;;2.20;1.90;;;;;;;;;;5051243;28;20437;-52
2021/05/10 05:33:25;;;;;;;2.13;1.73;;;;;;;;;;5051070;28;20429;-51
2021/05/10 05:35:53;;;;;;;4.93;2.03;;;;;;;;;;5050952;28;20412;-52
2021/05/10 05:38:19;;;;;;;3.67;1.77;;;;;;;;;;5051161;28;20421;-53
2021/05/10 05:40:45;;;;;;;2.07;1.97;;;;;;;;;;5050973;28;20457;-54
2021/05/10 05:43:13;;;;;;;3.23;2.00;;;;;;;;;;5050948;28;20401;-52
2021/05/10 05:45:40;;;;;;;1.80;1.70;;;;;;;;;;5051016;28;20397;-54
2021/05/10 05:48:08;;;;;;;4.93;2.10;;;;;;;;;;5050863;28;20469;-51
2021/05/10 05:50:34;;;;;;;6.60;2.03;;;;;;;;;;5050815;28;20496;-52
2021/05/10 05:53:02;;;;;;;5.03;2.00;;;;;;;;;;5050866;28;20445;-52
2021/05/10 05:55:28;;;;;;;1.80;1.70;;;;;;;;;;5050929;28;20448;-51
2021/05/10 05:57:55;;;;;;;3.17;2.10;;;;;;;;;;5050896;28;20425;-51
2021/05/10 06:00:25;;;;;;;5.70;2.00;;;;;;;;;;5050638;28;20615;-53
2021/05/10 06:02:51;;;;;;;3.93;2.17;;;;;;;;;;5050555;28;20394;-53
2021/05/10 06:05:17;;;;;;;2.50;2.13;;;;;;;;;;5050755;28;20748;-54
2021/05/10 06:07:43;;;;;;;2.60;2.13;;;;;;;;;;5050772;28;20413;-51
2021/05/10 06:10:11;;;;;;;2.50;1.90;;;;;;;;;;5050782;28;20447;-51
2021/05/10 06:12:38;;;;;;;5.27;3.00;;;;;;;;;;5050937;28;20480;-51
2021/05/10 06:15:04;;;;;;;11.60;2.33;;;;;;;;;;5050891;28;20403;-54
2021/05/10 06:17:30;;;;;;;1.97;1.87;;;;;;;;;;5050775;28;20433;-51
2021/05/10 06:19:57;;;;;;;2.13;1.80;;;;;;;;;;5050703;28;20842;-51
2021/05/10 06:22:23;;;;;;;3.53;2.07;;;;;;;;;;5050554;28;20476;-51
2021/05/10 06:24:49;;;;;;;2.37;2.00;;;;;;;;;;5050641;28;20489;-52
2021/05/10 06:27:15;;;;;;;2.03;1.93;;;;;;;;;;5050660;28;20496;-52
2021/05/10 06:29:41;;;;;;;3.77;2.20;;;;;;;;;;5050619;28;20905;-52
2021/05/10 06:32:07;;;;;;;2.37;1.93;;;;;;;;;;5050567;28;20403;-53
2021/05/10 06:34:33;;;;;;;3.97;2.00;;;;;;;;;;5050590;28;20740;-51
2021/05/10 06:36:59;;;;;;;8.90;3.20;;;;;;;;;;5050435;28;20864;-52
2021/05/10 06:39:25;;;;;;;2.33;2.13;;;;;;;;;;5050431;28;20892;-53
2021/05/10 06:41:51;;;;;;;3.93;2.10;;;;;;;;;;5050157;28;20487;-52
2021/05/10 06:44:18;;;;;;;2.20;2.00;;;;;;;;;;5050464;28;20480;-52
2021/05/10 06:46:44;;;;;;;3.63;2.40;;;;;;;;;;5050082;28;20989;-52
2021/05/10 06:49:10;;;;;;;2.23;1.90;;;;;;;;;;5050360;28;20405;-51
2021/05/10 06:51:36;;;;;;;5.73;2.30;;;;;;;;;;5050119;28;20401;-51
2021/05/10 06:54:02;;;;;;;3.30;1.87;;;;;;;;;;5050356;28;20401;-52
2021/05/10 06:56:28;;;;;;;2.73;2.43;;;;;;;;;;5050255;28;20452;-52
2021/05/10 06:58:54;;;;;;;2.80;2.53;;;;;;;;;;5050305;28;20408;-52
2021/05/10 07:01:19;;;;;;;3.10;2.27;;;;;;;;;;5049873;28;20797;-53
2021/05/10 07:03:45;;;;;;;3.40;2.20;;;;;;;;;;5050262;28;20483;-53
2021/05/10 07:06:11;;;;;;;3.60;2.10;;;;;;;;;;5050052;28;20417;-52
2021/05/10 07:08:37;;;;;;;2.30;2.20;;;;;;;;;;5050192;28;20501;-52
2021/05/10 07:11:03;;;;;;;7.13;2.37;;;;;;;;;;5053897;28;20837;-52
2021/05/10 07:13:29;;;;;;;6.87;2.60;;;;;;;;;;5053716;28;20405;-52
2021/05/10 07:15:55;;;;;;;2.37;2.17;;;;;;;;;;5053678;28;20405;-53
2021/05/10 07:18:21;;;;;;;2.07;1.87;;;;;;;;;;5053801;28;20405;-53
2021/05/10 07:20:47;;;;;;;3.50;2.40;;;;;;;;;;5053698;28;20456;-53
2021/05/10 07:23:14;;;;;;;5.07;2.37;;;;;;;;;;5053644;28;20535;-53
2021/05/10 07:25:42;;;;;;;2.20;2.03;;;;;;;;;;5053622;28;21123;-52
2021/05/10 07:28:11;;;;;;;5.97;2.43;;;;;;;;;;5053521;28;20428;-52
2021/05/10 07:30:37;;;;;;;2.13;1.80;;;;;;;;;;5053326;28;20406;-52
2021/05/10 07:33:04;;;;;;;2.23;2.03;;;;;;;;;;5053361;28;20513;-52
2021/05/10 07:35:31;;;;;;;6.37;1.80;;;;;;;;;;5053385;28;20821;-52
2021/05/10 07:37:57;;;;;;;2.23;2.00;;;;;;;;;;5053364;28;20478;-54
2021/05/10 07:40:23;;;;;;;2.73;1.83;;;;;;;;;;5053260;28;20916;-53
2021/05/10 07:42:50;;;;;;;2.10;1.73;;;;;;;;;;5053060;28;20401;-52
2021/05/10 07:45:16;;;;;;;3.83;1.80;;;;;;;;;;5053333;28;20842;-53
2021/05/10 07:47:43;;;;;;;2.83;1.80;;;;;;;;;;5052155;28;20472;-53
2021/05/10 07:50:09;;;;;;;1.70;1.60;;;;;;;;;;5052094;28;20483;-52
2021/05/10 07:52:35;;;;;;;2.70;1.80;;;;;;;;;;5051863;28;20393;-52
2021/05/10 07:55:01;;;;;;;1.50;1.40;;;;;;;;;;5052088;28;20397;-52
2021/05/10 07:57:27;;;;;;;1.80;1.70;;;;;;;;;;5051847;28;20967;-51
2021/05/10 07:59:54;;;;;;;4.77;1.93;;;;;;;;;;5051888;28;20451;-51
2021/05/10 08:02:23;;;;;;;7.63;1.67;;;;;;;;;;5051608;28;20991;-53
2021/05/10 08:04:52;;;;;;;2.43;1.70;;;;;;;;;;5052067;28;20484;-53
2021/05/10 08:07:18;;;;;;;2.40;2.20;;;;;;;;;;5050800;28;20413;-52
2021/05/10 08:09:44;;;;;;;2.03;1.90;;;;;;;;;;5051869;28;21076;-54
2021/05/10 08:12:10;;;;;;;2.53;1.97;;;;;;;;;;5051582;28;20401;-52
2021/05/10 08:14:36;;;;;;;3.53;1.87;;;;;;;;;;5051819;28;20401;-52
2021/05/10 08:17:03;;;;;;;1.67;1.57;;;;;;;;;;5051776;28;20467;-52
2021/05/10 08:19:29;;;;;;;4.90;2.10;;;;;;;;;;5051139;28;20547;-53
2021/05/10 08:21:58;;;;;;;2.77;1.63;;;;;;;;;;5051392;28;21042;-54
2021/05/10 08:24:24;;;;;;;5.83;1.70;;;;;;;;;;5051877;28;20504;-51
2021/05/10 08:26:50;;;;;;;1.77;1.60;;;;;;;;;;5051592;28;20512;-52
2021/05/10 08:29:17;;;;;;;3.83;1.70;;;;;;;;;;5051602;28;20497;-51
2021/05/10 08:31:46;;;;;;;1.77;1.63;;;;;;;;;;5051294;28;20417;-51
2021/05/10 08:34:15;;;;;;;7.70;3.20;;;;;;;;;;5051533;28;20935;-52
2021/05/10 08:36:41;;;;;;;3.47;1.67;;;;;;;;;;5051330;28;21106;-53
2021/05/10 08:39:10;;;;;;;2.43;1.80;;;;;;;;;;5051372;28;20397;-53
2021/05/10 08:41:37;;;;;;;2.27;1.20;;;;;;;;;;5051083;28;20449;-52
2021/05/10 08:44:07;;;;;;;2.20;2.00;;;;;;;;;;5051334;28;20408;-52
2021/05/10 08:46:34;;;;;;;2.03;1.83;;;;;;;;;;5032710;28;539085;-53
2021/05/10 08:49:00;;;;;;;2.87;1.67;;;;;;;;;;5051030;28;20634;-52
2021/05/10 08:51:27;;;;;;;3.83;1.87;;;;;;;;;;5051423;28;20770;-52
2021/05/10 08:53:53;;;;;;;1.90;1.80;;;;;;;;;;5052007;28;20389;-52
2021/05/10 08:56:19;;;;;;;2.53;1.83;;;;;;;;;;5051827;28;20500;-52
2021/05/10 08:58:46;;;;;;;2.53;2.33;;;;;;;;;;5051565;28;20484;-51
2021/05/10 09:01:12;;;;;;;3.17;1.83;;;;;;;;;;5051734;28;20437;-55
2021/05/10 09:03:44;;;;;;;1.20;1.10;;;;;;;;;;5051727;28;20775;-51
2021/05/10 09:06:14;;;;;;;6.50;1.60;;;;;;;;;;5051768;28;20474;-52
2021/05/10 09:08:41;;;;;;;1.53;1.43;;;;;;;;;;5051612;28;20401;-52
2021/05/10 09:11:08;;;;;;;1.00;1.00;;;;;;;;;;5051610;28;20827;-52
2021/05/10 09:13:44;;;;;;;5.70;1.40;;;;;;;;;;5051270;28;20406;-52
2021/05/10 09:16:11;;;;;;;2.90;1.53;;;;;;;;;;5051542;28;20429;-52
2021/05/10 09:18:37;;;;;;;7.97;2.30;;;;;;;;;;5051413;28;20405;-51
2021/05/10 09:21:14;;;;;;;9.00;2.83;;;;;;;;;;5051387;28;20445;-51
2021/05/10 09:23:40;;;;;;;5.13;2.40;;;;;;;;;;5050086;28;20496;-51
2021/05/10 09:26:06;;;;;;;1.40;1.30;;;;;;;;;;5051321;28;20507;-51
2021/05/10 09:28:58;;;;;;;2.07;1.20;;;;;;;;;;5051262;28;20781;-57
2021/05/10 09:31:24;;;;;;;5.47;1.40;;;;;;;;;;5048075;28;20413;-51
2021/05/10 09:33:50;;;;;;;1.30;1.20;;;;;;;;;;5051202;28;20416;-52
2021/05/10 09:36:35;;;;;;;2.30;1.27;;;;;;;;;;5051055;28;20775;-51
2021/05/10 09:39:03;;;;;;;1.60;1.20;;;;;;;;;;5051094;28;20477;-51
2021/05/10 09:41:29;;;;;;;3.33;1.10;;;;;;;;;;5050861;28;20453;-51
2021/05/10 09:44:06;;;;;;;1.27;1.17;;;;;;;;;;5050996;28;20404;-51
2021/05/10 09:46:38;;;;;;;1.30;1.20;;;;;;;;;;5050790;28;20436;-52
2021/05/10 09:49:04;;;;;;;4.73;1.07;;;;;;;;;;5051420;28;20493;-53
2021/05/10 09:51:30;;;;;;;1.50;1.40;;;;;;;;;;5050733;28;20406;-51
2021/05/10 09:53:57;;;;;;;4.20;1.07;;;;;;;;;;5050966;28;20402;-52
2021/05/10 09:58:53;;;;;;;1.27;1.17;;;;;;;;;;5051911;28;20443;-51
2021/05/10 10:01:20;;;;;;;1.90;1.20;;;;;;;;;;5037462;28;20948;-52
2021/05/10 10:03:48;;;;;;;2.93;1.00;;;;;;;;;;5050887;28;20792;-54
2021/05/10 10:06:16;;;;;;;1.10;1.00;;;;;;;;;;5054543;28;20482;-51
2021/05/10 10:08:44;;;;;;;1.17;1.07;;;;;;;;;;5052141;28;20458;-51
2021/05/10 10:11:11;;;;;;;1.90;1.50;;;;;;;;;;5065934;28;20421;-51
2021/05/10 10:13:38;;;;;;;0.90;0.90;;;;;;;;;;5052438;28;20417;-53
2021/05/10 10:16:07;;;;;;;1.73;1.00;;;;;;;;;;5050775;28;20428;-53
2021/05/10 10:18:36;;;;;;;2.50;1.03;;;;;;;;;;5053000;28;20405;-52
2021/05/10 10:21:03;;;;;;;1.40;1.20;;;;;;;;;;5050887;28;20526;-54
2021/05/10 10:23:29;;;;;;;2.53;1.07;;;;;;;;;;5050921;28;20420;-54
2021/05/10 10:25:58;;;;;;;1.00;0.90;;;;;;;;;;5051874;28;20813;-53
2021/05/10 10:28:24;;;;;;;2.23;1.70;;;;;;;;;;5050400;28;20397;-52
2021/05/10 10:31:17;;;;;;;2.13;1.10;;;;;;;;;;5050105;28;20500;-52
2021/05/10 10:33:59;;;;;;;1.93;1.00;;;;;;;;;;5047956;28;20455;-54
2021/05/10 10:36:29;;;;;;;1.20;1.10;;;;;;;;;;5050658;28;20421;-53
2021/05/10 10:39:16;;;;;;;0.90;0.90;;;;;;;;;;5050513;28;20488;-54
2021/05/10 10:41:51;;;;;;;1.40;1.30;;;;;;;;;;5050995;28;20476;-54
2021/05/10 10:44:38;;;;;;;1.03;0.90;;;;;;;;;;5052910;28;20413;-52
2021/05/10 10:47:05;;;;;;;3.33;1.27;;;;;;;;;;5054592;28;20433;-54
2021/05/10 10:49:31;;;;;;;4.20;1.10;;;;;;;;;;5054975;28;20476;-54
2021/05/10 10:51:57;;;;;;;2.90;1.10;;;;;;;;;;5054251;28;20476;-54
2021/05/10 10:54:25;;;;;;;1.27;0.90;;;;;;;;;;5054528;28;20385;-54
2021/05/10 10:56:54;;;;;;;1.93;0.97;;;;;;;;;;5053990;28;20558;-54
2021/05/10 10:59:23;;;;;;;1.13;1.00;;;;;;;;;;5054102;28;20393;-55
2021/05/10 11:01:49;;;;;;;0.87;0.87;;;;;;;;;;5053952;28;20445;-54
2021/05/10 11:04:25;;;;;;;1.77;1.03;;;;;;;;;;5053869;28;20480;-54
2021/05/10 11:06:51;;;;;;;3.27;0.87;;;;;;;;;;5052935;28;21015;-54
2021/05/10 11:09:17;;;;;;;1.33;1.00;;;;;;;;;;5052533;28;20427;-54
2021/05/10 11:11:43;;;;;;;1.63;0.80;;;;;;;;;;5052713;28;20813;-54
2021/05/10 11:14:14;;;;;;;0.97;0.97;;;;;;;;;;5053571;28;20496;-54
2021/05/10 11:16:46;;;;;;;1.13;0.80;;;;;;;;;;5053551;28;20417;-54
2021/05/10 11:19:28;;;;;;;1.40;0.87;;;;;;;;;;5053864;28;20770;-54
2021/05/10 11:21:54;;;;;;;0.73;0.70;;;;;;;;;;5052333;28;20444;-54
2021/05/10 11:24:24;;;;;;;1.60;1.00;;;;;;;;;;5053596;28;20432;-54
2021/05/10 11:26:51;;;;;;;0.87;0.83;;;;;;;;;;5053242;28;20497;-54
2021/05/10 11:29:26;;;;;;;1.20;1.10;;;;;;;;;;5053488;28;20441;-54
2021/05/10 11:31:56;;;;;;;2.07;1.20;;;;;;;;;;5053302;28;20412;-54
2021/05/10 11:34:27;;;;;;;1.50;0.90;;;;;;;;;;5053401;28;20463;-54
2021/05/10 11:36:53;;;;;;;1.20;0.90;;;;;;;;;;5053283;28;20478;-54
2021/05/10 11:39:25;;;;;;;0.97;0.87;;;;;;;;;;5053207;28;20440;-54
2021/05/10 11:41:56;;;;;;;1.33;1.10;;;;;;;;;;5053063;28;20507;-54
2021/05/10 11:44:23;;;;;;;6.13;1.10;;;;;;;;;;5053258;28;20413;-54
2021/05/10 11:47:08;;;;;;;1.10;1.00;;;;;;;;;;5053020;28;20468;-55
2021/05/10 11:49:38;;;;;;;1.90;1.07;;;;;;;;;;5051768;28;20408;-54
2021/05/10 11:52:11;;;;;;;1.17;1.07;;;;;;;;;;5052924;28;20441;-54
2021/05/10 11:54:56;;;;;;;1.87;1.77;;;;;;;;;;5052830;28;20778;-54
2021/05/10 11:57:25;;;;;;;1.20;1.10;;;;;;;;;;5053063;28;20482;-54
2021/05/10 12:00:10;;;;;;;2.10;1.47;;;;;;;;;;5052771;28;20409;-54
2021/05/10 12:02:36;;;;;;;2.47;0.97;;;;;;;;;;5052765;28;20481;-54
2021/05/10 12:05:06;;;;;;;1.33;1.23;;;;;;;;;;5052883;28;20905;-54
2021/05/10 12:07:33;;;;;;;1.00;0.90;;;;;;;;;;5052768;28;20421;-54
2021/05/10 12:10:03;;;;;;;1.43;1.33;;;;;;;;;;5052645;28;20776;-54
2021/05/10 12:12:30;;;;;;;2.30;1.00;;;;;;;;;;5052529;28;20897;-54
2021/05/10 12:14:57;;;;;;;1.37;1.27;;;;;;;;;;5052572;28;20439;-55
2021/05/10 12:17:25;;;;;;;2.80;1.73;;;;;;;;;;5052595;28;20867;-54
2021/05/10 12:19:58;;;;;;;2.10;1.20;;;;;;;;;;5052655;28;20443;-55
2021/05/10 12:22:27;;;;;;;1.47;1.37;;;;;;;;;;5052269;28;20453;-54
2021/05/10 12:24:56;;;;;;;1.40;1.30;;;;;;;;;;5052314;28;20450;-55
2021/05/10 12:27:23;;;;;;;2.33;1.30;;;;;;;;;;5052235;28;20416;-55
2021/05/10 12:29:49;;;;;;;1.30;1.20;;;;;;;;;;5052184;28;20397;-54
2021/05/10 12:32:15;;;;;;;2.17;1.27;;;;;;;;;;5052250;28;20393;-55
2021/05/10 12:34:42;;;;;;;1.33;1.23;;;;;;;;;;5052661;28;20758;-54
2021/05/10 12:37:08;;;;;;;1.20;1.10;;;;;;;;;;5052308;28;20425;-54
2021/05/10 12:39:36;;;;;;;1.23;1.13;;;;;;;;;;5051991;28;20409;-55
2021/05/10 12:42:12;;;;;;;1.40;1.20;;;;;;;;;;5052125;28;21089;-54
2021/05/10 12:44:38;;;;;;;1.40;1.30;;;;;;;;;;5052146;28;20393;-54
2021/05/10 12:47:04;;;;;;;2.50;1.20;;;;;;;;;;5051921;28;20506;-55
2021/05/10 12:49:30;;;;;;;1.83;1.40;;;;;;;;;;5051976;28;20401;-54
2021/05/10 12:51:56;;;;;;;2.30;1.43;;;;;;;;;;5051789;28;20488;-54
2021/05/10 12:54:23;;;;;;;1.77;1.67;;;;;;;;;;5052104;28;20474;-54
2021/05/10 12:56:51;;;;;;;1.47;1.27;;;;;;;;;;5051915;28;20478;-54
2021/05/10 12:59:17;;;;;;;1.40;1.30;;;;;;;;;;5052129;28;21135;-54
2021/05/10 13:01:43;;;;;;;1.63;1.20;;;;;;;;;;5051792;28;20449;-54
2021/05/10 13:04:12;;;;;;;3.77;1.60;;;;;;;;;;5052251;28;20420;-54
2021/05/10 13:06:39;;;;;;;1.57;1.40;;;;;;;;;;5051145;28;20417;-54
2021/05/10 13:09:06;;;;;;;2.77;1.50;;;;;;;;;;5051563;28;20901;-55
2021/05/10 13:11:45;;;;;;;1.40;1.27;;;;;;;;;;5051263;28;20413;-54
2021/05/10 13:14:18;;;;;;;1.40;1.30;;;;;;;;;;5051646;28;20904;-54
2021/05/10 13:31:01;;;;;;;2.87;2.30;;;;;;;;;;5051493;28;20388;-54
2021/05/10 13:33:30;;;;;;;4.07;2.03;;;;;;;;;;5051127;28;20393;-54
2021/05/10 13:36:04;;;;;;;2.60;2.40;;;;;;;;;;5051081;28;20393;-55
2021/05/10 13:38:34;;;;;;;2.90;1.80;;;;;;;;;;5051219;28;20420;-54
2021/05/10 13:41:04;;;;;;;5.03;2.63;;;;;;;;;;5047976;28;21194;-55
2021/05/10 13:43:43;;;;;;;3.87;1.70;;;;;;;;;;5049540;28;20378;-54
2021/05/10 13:46:08;;;;;;;8.60;2.20;;;;;;;;;;5048804;28;20421;-55
2021/05/10 13:48:35;;;;;;;6.00;2.30;;;;;;;;;;5049138;28;20476;-55
2021/05/10 13:51:01;;;;;;;2.00;1.70;;;;;;;;;;5049087;28;20462;-55
2021/05/10 13:53:27;;;;;;;3.13;2.30;;;;;;;;;;5048785;28;20409;-54
2021/05/10 13:55:53;;;;;;;3.50;2.07;;;;;;;;;;5049000;28;21097;-54
2021/05/10 13:58:19;;;;;;;2.03;1.80;;;;;;;;;;5049954;28;20911;-55
2021/05/10 14:00:45;;;;;;;3.80;2.00;;;;;;;;;;5050572;28;20449;-54
2021/05/10 14:03:11;;;;;;;8.20;2.30;;;;;;;;;;5050534;28;20397;-55
2021/05/10 14:05:36;;;;;;;2.93;1.90;;;;;;;;;;5050812;28;20420;-55
2021/05/10 14:08:03;;;;;;;3.70;1.87;;;;;;;;;;5050300;28;20417;-55
2021/05/10 14:10:29;;;;;;;2.00;1.80;;;;;;;;;;5050585;28;20450;-54
2021/05/10 14:12:55;;;;;;;1.90;1.70;;;;;;;;;;5050454;28;20412;-54
2021/05/10 14:15:21;;;;;;;1.90;1.50;;;;;;;;;;5049623;28;20779;-54
2021/05/10 14:17:47;;;;;;;1.67;1.57;;;;;;;;;;5049667;28;20460;-55
2021/05/10 14:20:14;;;;;;;3.00;1.87;;;;;;;;;;5050765;28;20495;-55
2021/05/10 14:22:40;;;;;;;1.50;1.40;;;;;;;;;;5050277;28;21190;-55
2021/05/10 14:25:07;;;;;;;1.97;1.87;;;;;;;;;;5050597;28;20397;-55
2021/05/10 14:27:33;;;;;;;8.13;3.20;;;;;;;;;;5050416;28;20532;-55
2021/05/10 14:29:59;;;;;;;1.70;1.60;;;;;;;;;;5050404;28;20821;-54
2021/05/10 14:32:25;;;;;;;2.07;1.60;;;;;;;;;;5050002;28;20424;-55
2021/05/10 14:34:51;;;;;;;4.60;1.90;;;;;;;;;;5050301;28;20442;-55
2021/05/10 14:37:18;;;;;;;2.13;1.93;;;;;;;;;;5050319;28;20916;-54
2021/05/10 14:39:44;;;;;;;1.40;1.30;;;;;;;;;;5050479;28;20492;-55
2021/05/10 14:42:11;;;;;;;3.20;1.40;;;;;;;;;;5050194;28;20532;-55
2021/05/10 14:44:37;;;;;;;1.60;1.50;;;;;;;;;;5050466;28;20527;-55
2021/05/10 14:47:03;;;;;;;2.07;1.57;;;;;;;;;;5050229;28;20535;-54
2021/05/10 14:49:29;;;;;;;2.90;1.43;;;;;;;;;;5050559;28;20415;-55
2021/05/10 14:51:55;;;;;;;1.57;1.30;;;;;;;;;;5050186;28;20832;-55
2021/05/10 14:54:21;;;;;;;1.40;1.30;;;;;;;;;;5050447;28;20405;-55
2021/05/10 14:56:47;;;;;;;2.10;1.20;;;;;;;;;;5050324;28;20444;-54
2021/05/10 14:59:13;;;;;;;3.67;1.53;;;;;;;;;;5050219;28;20405;-55
2021/05/10 15:01:39;;;;;;;1.30;1.20;;;;;;;;;;5050097;28;20452;-54
2021/05/10 15:04:05;;;;;;;2.27;1.30;;;;;;;;;;5050274;28;20397;-55
2021/05/10 15:06:31;;;;;;;2.50;1.40;;;;;;;;;;5050172;28;20780;-54
2021/05/10 15:08:57;;;;;;;3.73;1.40;;;;;;;;;;5050020;28;20401;-54